Wetterdaten: Woche 08.11.04 - 14.11.04 (KW46)
Datum Zeit Temperatur Luftfeuchte Luftdruck Niederschlag Taupunkt Windchill Wind
08.11.2004 00:00 1,7 C 98 % 1019 hPa 0,0 l/m 1,4 C 1,7 C 0,0 km/h (0 Bft)
08.11.2004 01:00 1,8 C 99 % 1019 hPa 0,0 l/m 1,6 C 1,8 C 0,0 km/h (0 Bft)
08.11.2004 02:00 1,8 C 99 % 1018 hPa 0,0 l/m 1,6 C 1,8 C 0,4 km/h (0 Bft)
08.11.2004 03:00 1,8 C 99 % 1018 hPa 0,0 l/m 1,7 C 1,8 C 0,0 km/h (0 Bft)
08.11.2004 04:00 1,4 C 99 % 1018 hPa 0,0 l/m 1,3 C 1,4 C 0,0 km/h (0 Bft)
08.11.2004 05:00 1,2 C 100 % 1017 hPa 0,0 l/m 1,2 C 1,2 C 0,0 km/h (0 Bft)
08.11.2004 06:00 1,1 C 100 % 1017 hPa 0,0 l/m 1,1 C 1,1 C 0,0 km/h (0 Bft)
08.11.2004 07:00 1,2 C 100 % 1017 hPa 0,0 l/m 1,2 C 1,2 C 0,3 km/h (0 Bft)
08.11.2004 08:00 1,6 C 100 % 1017 hPa 0,0 l/m 1,6 C 1,6 C 0,0 km/h (0 Bft)
08.11.2004 09:00 2,6 C 99 % 1018 hPa 0,0 l/m 2,5 C 2,1 C 3,7 km/h (1 Bft)
08.11.2004 10:00 3,0 C 89 % 1017 hPa 0,0 l/m 1,4 C -0,1 C 11,3 km/h (2 Bft)
08.11.2004 11:00 3,3 C 82 % 1017 hPa 0,0 l/m 0,5 C 1,2 C 9,2 km/h (2 Bft)
08.11.2004 12:00 4,4 C 69 % 1016 hPa 0,0 l/m -0,9 C 2,6 C 8,5 km/h (2 Bft)
08.11.2004 13:00 6,1 C 57 % 1016 hPa 0,0 l/m -1,7 C 4,3 C 9,0 km/h (2 Bft)
08.11.2004 14:00 4,4 C 70 % 1015 hPa 0,0 l/m -0,6 C 0,5 C 12,7 km/h (3 Bft)
08.11.2004 15:00 3,7 C 74 % 1015 hPa 0,0 l/m -0,6 C 2,3 C 7,5 km/h (2 Bft)
08.11.2004 16:00 3,0 C 76 % 1015 hPa 0,0 l/m -0,7 C 3,0 C 0,5 km/h (0 Bft)
08.11.2004 17:00 1,8 C 80 % 1015 hPa 0,0 l/m -1,2 C 1,8 C 0,0 km/h (0 Bft)
08.11.2004 18:00 0,8 C 86 % 1015 hPa 0,0 l/m -1,3 C 0,8 C 0,4 km/h (0 Bft)
08.11.2004 19:00 0,9 C 90 % 1015 hPa 0,0 l/m -0,5 C 0,9 C 0,0 km/h (0 Bft)
08.11.2004 20:00 0,9 C 91 % 1014 hPa 0,0 l/m -0,4 C 0,9 C 1,1 km/h (0 Bft)
08.11.2004 21:00 0,9 C 93 % 1014 hPa 0,0 l/m -0,1 C 0,9 C 0,2 km/h (0 Bft)
08.11.2004 22:00 0,9 C 94 % 1014 hPa 0,0 l/m 0,1 C 0,2 C 6,7 km/h (2 Bft)
08.11.2004 23:00 0,2 C 94 % 1013 hPa 0,0 l/m -0,7 C 0,1 C 1,5 km/h (1 Bft)
09.11.2004 00:00 0,4 C 98 % 1013 hPa 0,0 l/m 0,1 C 0,4 C 0,0 km/h (0 Bft)
09.11.2004 01:00 0,5 C 98 % 1012 hPa 0,0 l/m 0,3 C 0,5 C 0,0 km/h (0 Bft)
09.11.2004 02:00 0,4 C 96 % 1012 hPa 0,0 l/m -0,1 C 0,4 C 0,0 km/h (0 Bft)
09.11.2004 03:00 0,5 C 93 % 1012 hPa 0,0 l/m -0,4 C 0,5 C 0,0 km/h (0 Bft)
09.11.2004 04:00 0,4 C 92 % 1011 hPa 0,0 l/m -0,7 C 0,4 C 0,0 km/h (0 Bft)
09.11.2004 05:00 -0,2 C 91 % 1011 hPa 0,0 l/m -1,5 C -0,2 C 0,0 km/h (0 Bft)
09.11.2004 06:00 -0,5 C 89 % 1011 hPa 0,0 l/m -2,1 C -0,5 C 0,0 km/h (0 Bft)
09.11.2004 07:00 -0,5 C 88 % 1011 hPa 0,0 l/m -2,3 C -0,5 C 0,0 km/h (0 Bft)
09.11.2004 08:00 -0,3 C 87 % 1011 hPa 0,0 l/m -2,2 C -0,3 C 0,0 km/h (0 Bft)
09.11.2004 09:00 0,1 C 86 % 1011 hPa 0,0 l/m -1,9 C 0,1 C 0,0 km/h (0 Bft)
09.11.2004 10:00 0,5 C 85 % 1011 hPa 0,0 l/m -1,7 C 0,5 C 0,0 km/h (0 Bft)
09.11.2004 11:00 1,3 C 81 % 1010 hPa 0,0 l/m -1,6 C 0,9 C 3,6 km/h (1 Bft)
09.11.2004 12:00 1,9 C 76 % 1010 hPa 0,0 l/m -2,0 C 1,1 C 5,4 km/h (1 Bft)
09.11.2004 13:00 2,1 C 75 % 1009 hPa 0,0 l/m -2,0 C 1,9 C 2,9 km/h (1 Bft)
09.11.2004 14:00 2,0 C 77 % 1009 hPa 0,0 l/m -1,5 C 1,4 C 4,8 km/h (1 Bft)
09.11.2004 15:00 1,4 C 84 % 1009 hPa 0,0 l/m -1,1 C 0,0 C 8,1 km/h (2 Bft)
09.11.2004 16:00 0,5 C 90 % 1009 hPa 0,0 l/m -1,0 C 0,3 C 1,8 km/h (1 Bft)
09.11.2004 17:00 0,5 C 91 % 1009 hPa 0,0 l/m -0,7 C 0,5 C 0,0 km/h (0 Bft)
09.11.2004 18:00 0,5 C 90 % 1008 hPa 0,0 l/m -0,9 C 0,5 C 0,0 km/h (0 Bft)
09.11.2004 19:00 0,4 C 89 % 1008 hPa 0,0 l/m -1,1 C 0,4 C 0,0 km/h (0 Bft)
09.11.2004 20:00 0,3 C 91 % 1008 hPa 0,0 l/m -1,0 C 0,3 C 0,0 km/h (0 Bft)
09.11.2004 21:00 0,2 C 91 % 1008 hPa 0,0 l/m -1,1 C 0,2 C 0,0 km/h (0 Bft)
09.11.2004 22:00 0,1 C 89 % 1008 hPa 0,0 l/m -1,6 C 0,1 C 0,0 km/h (0 Bft)
09.11.2004 23:00 0,1 C 86 % 1008 hPa 0,0 l/m -2,0 C 0,1 C 0,0 km/h (0 Bft)
10.11.2004 00:00 -0,0 C 84 % 1008 hPa 0,0 l/m -2,4 C -0,0 C 0,0 km/h (0 Bft)
10.11.2004 01:00 -0,3 C 85 % 1008 hPa 0,0 l/m -2,4 C -0,3 C 0,0 km/h (0 Bft)
10.11.2004 02:00 -0,5 C 88 % 1008 hPa 0,0 l/m -2,3 C -0,5 C 0,0 km/h (0 Bft)
10.11.2004 03:00 -0,8 C 91 % 1008 hPa 0,0 l/m -2,0 C -0,8 C 0,0 km/h (0 Bft)
10.11.2004 04:00 -0,9 C 93 % 1008 hPa 0,0 l/m -1,9 C -0,9 C 0,0 km/h (0 Bft)
10.11.2004 05:00 -1,1 C 98 % 1008 hPa 0,0 l/m -1,4 C -1,1 C 0,0 km/h (0 Bft)
10.11.2004 06:00 -0,9 C 97 % 1008 hPa 0,0 l/m -1,3 C -0,9 C 0,0 km/h (0 Bft)
10.11.2004 07:00 -0,5 C 91 % 1009 hPa 0,0 l/m -1,7 C -0,5 C 0,0 km/h (0 Bft)
10.11.2004 08:00 0,0 C 89 % 1009 hPa 0,0 l/m -1,6 C -0,1 C 1,3 km/h (1 Bft)
10.11.2004 09:00 0,7 C 84 % 1009 hPa 0,0 l/m -1,7 C -2,4 C 11,2 km/h (2 Bft)
10.11.2004 10:00 1,6 C 78 % 1009 hPa 0,0 l/m -1,8 C -1,0 C 10,3 km/h (2 Bft)
10.11.2004 11:00 2,1 C 73 % 1009 hPa 0,0 l/m -2,1 C -1,6 C 11,6 km/h (2 Bft)
10.11.2004 12:00 2,9 C 70 % 1009 hPa 0,0 l/m -2,1 C 1,2 C 8,2 km/h (2 Bft)
10.11.2004 13:00 3,0 C 65 % 1009 hPa 0,0 l/m -2,9 C 2,8 C 2,8 km/h (1 Bft)
10.11.2004 14:00 3,0 C 65 % 1009 hPa 0,0 l/m -2,9 C 2,6 C 4,5 km/h (1 Bft)
10.11.2004 15:00 2,8 C 67 % 1009 hPa 0,0 l/m -2,7 C 1,1 C 7,1 km/h (2 Bft)
10.11.2004 16:00 2,5 C 72 % 1009 hPa 0,0 l/m -2,0 C 0,7 C 9,0 km/h (2 Bft)
10.11.2004 17:00 2,1 C 76 % 1009 hPa 0,0 l/m -1,8 C 0,8 C 7,6 km/h (2 Bft)
10.11.2004 18:00 1,8 C 78 % 1010 hPa 0,0 l/m -1,5 C 1,1 C 6,3 km/h (2 Bft)
10.11.2004 19:00 1,2 C 83 % 1010 hPa 0,0 l/m -1,4 C 0,6 C 5,1 km/h (1 Bft)
10.11.2004 20:00 0,9 C 88 % 1010 hPa 0,0 l/m -0,9 C -0,2 C 7,4 km/h (2 Bft)
10.11.2004 21:00 0,7 C 92 % 1010 hPa 0,0 l/m -0,4 C -1,6 C 9,2 km/h (2 Bft)
10.11.2004 22:00 0,7 C 97 % 1010 hPa 0,0 l/m 0,2 C -0,3 C 7,8 km/h (2 Bft)
10.11.2004 23:00 0,7 C 97 % 1011 hPa 0,0 l/m 0,2 C -0,6 C 7,8 km/h (2 Bft)
11.11.2004 00:00 0,6 C 96 % 1011 hPa 0,0 l/m 0,0 C -1,4 C 9,3 km/h (2 Bft)
11.11.2004 01:00 0,5 C 96 % 1011 hPa 0,0 l/m -0,0 C -0,8 C 7,5 km/h (2 Bft)
11.11.2004 02:00 0,4 C 95 % 1011 hPa 0,0 l/m -0,4 C -0,3 C 6,8 km/h (2 Bft)
11.11.2004 03:00 0,3 C 94 % 1011 hPa 0,0 l/m -0,5 C -0,8 C 6,1 km/h (2 Bft)
11.11.2004 04:00 0,3 C 94 % 1011 hPa 0,0 l/m -0,5 C -0,2 C 6,3 km/h (2 Bft)
11.11.2004 05:00 0,3 C 95 % 1012 hPa 0,0 l/m -0,4 C -0,9 C 6,6 km/h (2 Bft)
11.11.2004 06:00 0,4 C 93 % 1012 hPa 0,0 l/m -0,6 C -0,4 C 6,8 km/h (2 Bft)
11.11.2004 07:00 0,4 C 92 % 1013 hPa 0,0 l/m -0,8 C -0,3 C 4,8 km/h (1 Bft)
11.11.2004 08:00 0,6 C 92 % 1013 hPa 0,0 l/m -0,6 C -0,3 C 6,1 km/h (2 Bft)
11.11.2004 09:00 0,9 C 91 % 1014 hPa 0,0 l/m -0,4 C 0,2 C 5,8 km/h (2 Bft)
11.11.2004 10:00 1,6 C 88 % 1014 hPa 0,0 l/m -0,3 C 0,6 C 7,1 km/h (2 Bft)
11.11.2004 11:00 2,3 C 81 % 1015 hPa 0,0 l/m -0,6 C 0,2 C 10,3 km/h (2 Bft)
11.11.2004 12:00 2,9 C 76 % 1015 hPa 0,0 l/m -1,0 C -0,0 C 10,7 km/h (2 Bft)
11.11.2004 13:00 3,0 C 73 % 1015 hPa 0,0 l/m -1,3 C -0,0 C 11,7 km/h (2 Bft)
11.11.2004 14:00 2,8 C 73 % 1016 hPa 0,0 l/m -1,6 C -0,8 C 12,2 km/h (2 Bft)
11.11.2004 15:00 2,7 C 75 % 1017 hPa 0,0 l/m -1,2 C -1,3 C 12,6 km/h (3 Bft)
11.11.2004 16:00 2,5 C 76 % 1017 hPa 0,0 l/m -1,3 C -0,6 C 11,1 km/h (2 Bft)
11.11.2004 17:00 2,3 C 77 % 1018 hPa 0,0 l/m -1,4 C -1,3 C 11,6 km/h (2 Bft)
11.11.2004 18:00 2,2 C 78 % 1019 hPa 0,0 l/m -1,2 C -1,5 C 11,9 km/h (2 Bft)
11.11.2004 19:00 2,0 C 79 % 1019 hPa 0,0 l/m -1,2 C -2,1 C 12,9 km/h (3 Bft)
11.11.2004 20:00 1,9 C 82 % 1020 hPa 0,0 l/m -0,9 C -2,4 C 12,9 km/h (3 Bft)
11.11.2004 21:00 1,8 C 83 % 1020 hPa 0,0 l/m -0,8 C -2,3 C 12,8 km/h (3 Bft)
11.11.2004 22:00 1,7 C 85 % 1020 hPa 0,0 l/m -0,6 C -1,4 C 10,5 km/h (2 Bft)
11.11.2004 23:00 1,7 C 87 % 1021 hPa 0,0 l/m -0,3 C -1,8 C 11,1 km/h (2 Bft)
12.11.2004 00:00 1,5 C 87 % 1021 hPa 0,0 l/m -0,3 C -3,5 C 13,7 km/h (3 Bft)
12.11.2004 01:00 1,2 C 88 % 1021 hPa 0,0 l/m -0,5 C -4,5 C 14,5 km/h (3 Bft)
12.11.2004 02:00 1,1 C 90 % 1020 hPa 0,0 l/m -0,4 C -1,9 C 11,2 km/h (2 Bft)
12.11.2004 03:00 1,0 C 91 % 1020 hPa 0,0 l/m -0,3 C -1,9 C 10,6 km/h (2 Bft)
12.11.2004 04:00 0,9 C 93 % 1021 hPa 0,0 l/m -0,1 C -1,9 C 10,9 km/h (2 Bft)
12.11.2004 05:00 0,8 C 94 % 1021 hPa 0,0 l/m -0,0 C -2,6 C 10,6 km/h (2 Bft)
12.11.2004 06:00 0,6 C 96 % 1021 hPa 0,0 l/m 0,0 C -1,2 C 8,8 km/h (2 Bft)
12.11.2004 07:00 0,5 C 96 % 1021 hPa 0,0 l/m 0,0 C -0,7 C 8,0 km/h (2 Bft)
12.11.2004 08:00 0,6 C 97 % 1021 hPa 0,0 l/m 0,2 C -0,6 C 6,7 km/h (2 Bft)
12.11.2004 09:00 0,7 C 98 % 1021 hPa 0,0 l/m 0,4 C 0,5 C 2,6 km/h (1 Bft)
12.11.2004 10:00 1,0 C 97 % 1021 hPa 0,0 l/m 0,6 C 1,0 C 0,5 km/h (0 Bft)
12.11.2004 11:00 1,2 C 94 % 1021 hPa 0,0 l/m 0,4 C 1,2 C 0,0 km/h (0 Bft)
12.11.2004 12:00 1,5 C 93 % 1020 hPa 0,0 l/m 0,5 C 1,5 C 1,3 km/h (1 Bft)
12.11.2004 13:00 1,7 C 91 % 1020 hPa 0,0 l/m 0,4 C 0,3 C 7,8 km/h (2 Bft)
12.11.2004 14:00 1,6 C 91 % 1019 hPa 0,0 l/m 0,3 C -0,7 C 9,5 km/h (2 Bft)
12.11.2004 15:00 1,7 C 91 % 1019 hPa 0,0 l/m 0,3 C 0,2 C 8,1 km/h (2 Bft)
12.11.2004 16:00 1,7 C 91 % 1019 hPa 0,0 l/m 0,4 C 0,3 C 8,0 km/h (2 Bft)
12.11.2004 17:00 1,9 C 92 % 1019 hPa 0,0 l/m 0,7 C 0,6 C 6,9 km/h (2 Bft)
12.11.2004 18:00 2,0 C 92 % 1020 hPa 0,0 l/m 0,8 C 0,3 C 7,6 km/h (2 Bft)
12.11.2004 19:00 1,9 C 91 % 1020 hPa 0,0 l/m 0,6 C -1,4 C 11,3 km/h (2 Bft)
12.11.2004 20:00 1,9 C 91 % 1019 hPa 0,0 l/m 0,6 C -1,1 C 11,0 km/h (2 Bft)
12.11.2004 21:00 1,7 C 92 % 1019 hPa 0,0 l/m 0,5 C -0,4 C 8,0 km/h (2 Bft)
12.11.2004 22:00 1,6 C 92 % 1019 hPa 0,0 l/m 0,5 C -0,3 C 8,8 km/h (2 Bft)
12.11.2004 23:00 1,5 C 94 % 1019 hPa 0,0 l/m 0,6 C -1,5 C 11,6 km/h (2 Bft)
13.11.2004 00:00 1,6 C 94 % 1019 hPa 0,0 l/m 0,8 C -2,7 C 12,7 km/h (3 Bft)
13.11.2004 01:00 1,5 C 92 % 1019 hPa 0,0 l/m 0,4 C -0,6 C 8,8 km/h (2 Bft)
13.11.2004 02:00 1,3 C 92 % 1018 hPa 0,0 l/m 0,2 C -0,6 C 8,8 km/h (2 Bft)
13.11.2004 03:00 1,3 C 93 % 1018 hPa 0,0 l/m 0,3 C -1,1 C 10,0 km/h (2 Bft)
13.11.2004 04:00 1,3 C 96 % 1018 hPa 0,0 l/m 0,7 C -1,0 C 9,9 km/h (2 Bft)
13.11.2004 05:00 1,4 C 99 % 1019 hPa 0,0 l/m 1,3 C -0,5 C 8,9 km/h (2 Bft)
13.11.2004 06:00 0,9 C 100 % 1019 hPa 0,0 l/m 0,9 C 0,5 C 4,8 km/h (1 Bft)
13.11.2004 07:00 0,8 C 100 % 1020 hPa 0,0 l/m 0,8 C -0,6 C 8,7 km/h (2 Bft)
13.11.2004 08:00 1,0 C 100 % 1021 hPa 0,0 l/m 1,0 C 0,7 C 5,4 km/h (1 Bft)
13.11.2004 09:00 1,3 C 100 % 1022 hPa 0,0 l/m 1,3 C -0,7 C 9,4 km/h (2 Bft)
13.11.2004 10:00 1,8 C 100 % 1023 hPa 2,0 l/m 1,7 C 0,5 C 8,2 km/h (2 Bft)
13.11.2004 11:00 2,0 C 98 % 1023 hPa 1,0 l/m 1,7 C 1,6 C 4,6 km/h (1 Bft)
13.11.2004 12:00 2,4 C 96 % 1023 hPa 0,0 l/m 1,9 C 2,1 C 3,2 km/h (1 Bft)
13.11.2004 13:00 2,6 C 94 % 1024 hPa 0,0 l/m 1,7 C 1,8 C 5,3 km/h (1 Bft)
13.11.2004 14:00 2,7 C 90 % 1024 hPa 0,0 l/m 1,2 C 1,3 C 8,4 km/h (2 Bft)
13.11.2004 15:00 2,8 C 85 % 1024 hPa 0,0 l/m 0,5 C 1,9 C 6,0 km/h (2 Bft)
13.11.2004 16:00 2,4 C 85 % 1024 hPa 0,0 l/m 0,1 C 2,4 C 1,7 km/h (1 Bft)
13.11.2004 17:00 1,1 C 88 % 1025 hPa 0,0 l/m -0,8 C 1,0 C 1,5 km/h (1 Bft)
13.11.2004 18:00 0,6 C 91 % 1025 hPa 0,0 l/m -0,6 C 0,6 C 2,4 km/h (1 Bft)
13.11.2004 19:00 1,0 C 91 % 1025 hPa 0,0 l/m -0,3 C 0,6 C 5,2 km/h (1 Bft)
13.11.2004 20:00 0,8 C 90 % 1026 hPa 0,0 l/m -0,7 C 0,5 C 5,7 km/h (1 Bft)
13.11.2004 21:00 0,2 C 91 % 1026 hPa 0,0 l/m -1,1 C 0,0 C 1,9 km/h (1 Bft)
13.11.2004 22:00 -0,4 C 92 % 1025 hPa 0,0 l/m -1,5 C -0,4 C 0,0 km/h (0 Bft)
13.11.2004 23:00 -0,8 C 94 % 1025 hPa 0,0 l/m -1,6 C -0,8 C 0,0 km/h (0 Bft)
14.11.2004 00:00 -1,2 C 96 % 1025 hPa 0,0 l/m -1,8 C -1,2 C 0,0 km/h (0 Bft)
14.11.2004 01:00 -0,8 C 97 % 1025 hPa 0,0 l/m -1,2 C -0,8 C 0,0 km/h (0 Bft)
14.11.2004 02:00 -0,1 C 96 % 1025 hPa 0,0 l/m -0,6 C -0,1 C 0,0 km/h (0 Bft)
14.11.2004 03:00 -0,1 C 90 % 1025 hPa 0,0 l/m -1,6 C -0,1 C 0,0 km/h (0 Bft)
14.11.2004 04:00 -0,2 C 91 % 1025 hPa 0,0 l/m -1,4 C -0,2 C 0,0 km/h (0 Bft)
14.11.2004 05:00 0,0 C 85 % 1025 hPa 0,0 l/m -2,2 C 0,0 C 0,0 km/h (0 Bft)
14.11.2004 06:00 0,2 C 75 % 1025 hPa 0,0 l/m -3,7 C 0,2 C 0,0 km/h (0 Bft)
14.11.2004 07:00 0,1 C 76 % 1025 hPa 0,0 l/m -3,7 C 0,1 C 0,0 km/h (0 Bft)
14.11.2004 08:00 0,1 C 78 % 1025 hPa 0,0 l/m -3,3 C 0,1 C 0,0 km/h (0 Bft)
14.11.2004 09:00 0,4 C 71 % 1026 hPa 0,0 l/m -4,2 C 0,4 C 0,0 km/h (0 Bft)
14.11.2004 10:00 1,2 C 69 % 1027 hPa 0,0 l/m -3,7 C -2,4 C 10,4 km/h (2 Bft)
14.11.2004 11:00 2,0 C 60 % 1027 hPa 0,0 l/m -5,0 C -5,6 C 19,1 km/h (3 Bft)
14.11.2004 12:00 2,0 C 56 % 1026 hPa 0,0 l/m -5,7 C -5,4 C 19,9 km/h (4 Bft)
14.11.2004 13:00 1,6 C 55 % 1026 hPa 0,0 l/m -6,4 C -5,2 C 17,7 km/h (3 Bft)
14.11.2004 14:00 1,5 C 59 % 1027 hPa 0,0 l/m -5,7 C -4,4 C 16,0 km/h (3 Bft)
14.11.2004 15:00 1,5 C 58 % 1027 hPa 0,0 l/m -5,8 C -3,8 C 15,0 km/h (3 Bft)
14.11.2004 16:00 0,9 C 62 % 1027 hPa 0,0 l/m -5,5 C -3,4 C 13,1 km/h (3 Bft)
14.11.2004 17:00 -0,3 C 70 % 1027 hPa 0,0 l/m -5,0 C -3,8 C 11,6 km/h (2 Bft)
14.11.2004 18:00 -0,9 C 73 % 1028 hPa 0,0 l/m -5,0 C -4,8 C 11,5 km/h (2 Bft)
14.11.2004 19:00 -1,3 C 76 % 1028 hPa 0,0 l/m -5,0 C -4,3 C 10,7 km/h (2 Bft)
14.11.2004 20:00 -1,8 C 79 % 1028 hPa 0,0 l/m -4,9 C -5,6 C 11,3 km/h (2 Bft)
14.11.2004 21:00 -2,1 C 82 % 1028 hPa 0,0 l/m -4,8 C -7,1 C 13,6 km/h (3 Bft)
14.11.2004 22:00 -2,2 C 82 % 1028 hPa 0,0 l/m -4,8 C -4,3 C 7,3 km/h (2 Bft)
14.11.2004 23:00 -3,0 C 85 % 1028 hPa 0,0 l/m -5,1 C -3,5 C 6,1 km/h (2 Bft)
Min-Datum _ 14.11.04 08.11.04 10.11.04 - 14.11.04 14.11.04 08.11.04
_ Min-Zeit 23:39 13:42 05:50 - 13:17 12:24 00:00
Minimum _ -3,1 C 54 % 1007 hPa - -7,0 C -10,5 C 0,0 km/h (0 Bft)
Max-Datum _ 08.11.04 08.11.04 14.11.04 13.11.04 08.11.04 08.11.04 14.11.04
_ Max-Zeit 13:39 05:22 18:27 10:09 09:52 13:38 12:25
Maximum _ 6,9 C 100 % 1028 hPa 2,0 l/m 2,9 C 6,8 C 40,3 km/h
NW (6 Bft)
Durchschnitt _ 1,1 C 87 % 1017 hPa #3,0 l/m -1,0 C -0,3 C 5,7 km/h (1 Bft)

Durchschnitt Minimum Temp.0,9 C
Durchschnitt Maximum Temp.1,3 C